createdAt,value
2016-11-03T00:00:49.965Z,791.15
2016-11-03T00:01:49.944Z,791.28
2016-11-03T00:02:49.949Z,790.7
2016-11-03T00:03:49.967Z,790.74
2016-11-03T00:04:49.959Z,790.53
2016-11-03T00:05:49.970Z,790.52
2016-11-03T00:06:49.951Z,791.35
2016-11-03T00:07:52.457Z,790.74
2016-11-03T00:08:52.595Z,790.77
2016-11-03T00:09:52.382Z,790.87
2016-11-03T00:10:53.042Z,791.06
2016-11-03T00:11:52.285Z,790.76
2016-11-03T00:12:55.010Z,791.07
2016-11-03T00:13:52.467Z,790.74
2016-11-03T00:14:52.434Z,790.29
2016-11-03T00:15:52.537Z,790.17
2016-11-03T00:16:52.679Z,789.57
2016-11-03T00:17:52.712Z,789.09
2016-11-03T00:18:52.632Z,788.9
2016-11-03T00:19:52.597Z,788.13
2016-11-03T00:20:52.735Z,787.33
2016-11-03T00:21:52.367Z,787.48
2016-11-03T00:22:52.837Z,786.22
2016-11-03T00:23:54.082Z,785.92
2016-11-03T00:24:52.496Z,785.2
2016-11-03T00:25:52.123Z,784.25
2016-11-03T00:26:52.428Z,784.08
2016-11-03T00:27:52.587Z,782.78
2016-11-03T00:28:52.658Z,781.88
2016-11-03T00:29:51.932Z,781.08
2016-11-03T00:30:52.525Z,780.67
2016-11-03T00:31:51.852Z,780.75
2016-11-03T00:32:52.339Z,779.3
2016-11-03T00:33:49.986Z,777.65
2016-11-03T00:34:49.992Z,776.9
2016-11-03T00:35:49.977Z,776.32
2016-11-03T00:36:49.983Z,775.47
2016-11-03T00:37:49.967Z,774.89
2016-11-03T00:38:49.974Z,773.93
2016-11-03T00:39:49.965Z,774.07
2016-11-03T00:40:49.970Z,774.24
2016-11-03T00:41:50.021Z,774.31
2016-11-03T00:42:49.973Z,774.57
2016-11-03T00:43:50.005Z,775.09
2016-11-03T00:44:49.974Z,775.23
2016-11-03T00:45:49.968Z,776.06
2016-11-03T00:46:49.984Z,776.51
2016-11-03T00:47:49.977Z,777.03
2016-11-03T00:48:49.977Z,777.5
2016-11-03T00:49:49.977Z,778.27
2016-11-03T00:50:49.974Z,779.13
2016-11-03T00:51:49.984Z,779.46
2016-11-03T00:52:49.980Z,780.05
2016-11-03T00:53:49.981Z,780.72
2016-11-03T00:54:49.985Z,781.66
2016-11-03T00:55:49.983Z,781.64
2016-11-03T00:56:49.996Z,781.91
2016-11-03T00:57:50.002Z,782.56
2016-11-03T00:58:49.994Z,782.22
2016-11-03T00:59:49.986Z,782.84
2016-11-03T01:00:49.994Z,784
2016-11-03T01:01:49.990Z,784.62
2016-11-03T01:02:50.314Z,785.4
2016-11-03T01:03:49.998Z,785.2
2016-11-03T01:04:49.978Z,786.21
2016-11-03T01:05:49.991Z,786.68
2016-11-03T01:06:49.993Z,787.01
2016-11-03T01:07:50.003Z,787.33
2016-11-03T01:08:49.997Z,786.8
2016-11-03T01:09:49.987Z,788.06
2016-11-03T01:10:50.000Z,787.99
2016-11-03T01:11:49.996Z,788.3
2016-11-03T01:12:50.004Z,788.96
2016-11-03T01:13:49.999Z,789.41
2016-11-03T01:14:49.994Z,789.93
2016-11-03T01:15:50.009Z,789.58
2016-11-03T01:16:50.009Z,789.75
2016-11-03T01:17:50.006Z,790.01
2016-11-03T01:18:50.009Z,790
2016-11-03T01:19:49.999Z,790.36
2016-11-03T01:20:50.013Z,790.63
2016-11-03T01:21:50.020Z,790.28
2016-11-03T01:22:50.006Z,790.44
2016-11-03T01:23:49.996Z,789.81
2016-11-03T01:24:50.262Z,789.98
2016-11-03T01:25:50.010Z,790.46
2016-11-03T01:26:49.999Z,790.97
2016-11-03T01:27:50.015Z,791.08
2016-11-03T01:28:50.019Z,791.55
2016-11-03T01:29:50.006Z,792.13
2016-11-03T01:30:50.012Z,791.89
2016-11-03T01:31:50.073Z,791.88
2016-11-03T01:32:50.013Z,790.95
2016-11-03T01:33:50.017Z,791.27
2016-11-03T01:34:50.023Z,791.39
2016-11-03T01:35:50.015Z,791.28
2016-11-03T01:36:50.028Z,791.44
2016-11-03T01:37:50.017Z,791.41
2016-11-03T01:38:50.015Z,790.59
2016-11-03T01:39:50.014Z,791.56
2016-11-03T01:40:50.015Z,790.77
2016-11-03T01:41:50.022Z,790.8
2016-11-03T01:42:50.023Z,790.57
2016-11-03T01:43:50.020Z,790.95
2016-11-03T01:44:50.022Z,791.3
2016-11-03T01:45:50.022Z,791.43
2016-11-03T01:46:50.027Z,791.66
2016-11-03T01:47:50.028Z,791.74
2016-11-03T01:48:50.035Z,792.33
2016-11-03T01:49:50.028Z,792.37
2016-11-03T01:50:50.049Z,793.15
2016-11-03T01:51:50.036Z,793.08
2016-11-03T01:52:50.031Z,794.24
2016-11-03T01:53:50.024Z,794.1
2016-11-03T01:54:50.045Z,794.68
2016-11-03T01:55:50.033Z,795.2
2016-11-03T01:56:50.039Z,795.65
2016-11-03T01:57:50.048Z,795.66
2016-11-03T01:58:50.036Z,796.41
2016-11-03T01:59:50.029Z,797.09
2016-11-03T02:00:50.043Z,796.98
2016-11-03T02:01:50.043Z,798.03
2016-11-03T02:02:50.048Z,798.1
2016-11-03T02:03:50.035Z,798.35
2016-11-03T02:04:50.043Z,798.54
2016-11-03T02:05:50.048Z,799.46
2016-11-03T02:06:50.099Z,799.13
2016-11-03T02:07:50.046Z,799.12
2016-11-03T02:08:50.053Z,798.33
2016-11-03T02:09:50.036Z,798.18
2016-11-03T02:10:50.036Z,798.7
2016-11-03T02:11:50.037Z,798.99
2016-11-03T02:12:50.052Z,798.9
2016-11-03T02:13:50.037Z,798.39
2016-11-03T02:14:50.048Z,798.55
2016-11-03T02:15:50.052Z,798.58
2016-11-03T02:16:50.033Z,797.48
2016-11-03T02:17:50.045Z,798.27
2016-11-03T02:18:50.057Z,797.79
2016-11-03T02:19:50.123Z,797.26
2016-11-03T02:20:50.054Z,796.71
2016-11-03T02:21:50.042Z,796.69
2016-11-03T02:22:50.051Z,796.4
2016-11-03T02:23:50.046Z,797.06
2016-11-03T02:24:50.068Z,797.04
2016-11-03T02:25:50.044Z,797.17
2016-11-03T02:26:50.053Z,797.65
2016-11-03T02:27:50.055Z,798.11
2016-11-03T02:28:50.062Z,798.13
2016-11-03T02:29:50.070Z,797.31
2016-11-03T02:30:50.077Z,797.14
2016-11-03T02:31:50.115Z,797.46
2016-11-03T02:32:50.070Z,797.81
2016-11-03T02:33:50.055Z,797.45
2016-11-03T02:34:50.067Z,797.32
2016-11-03T02:35:50.072Z,797.29
2016-11-03T02:36:50.058Z,796.89
2016-11-03T02:37:50.134Z,797.32
2016-11-03T02:38:50.053Z,797.16
2016-11-03T02:39:50.077Z,796.19
2016-11-03T02:40:50.088Z,796.05
2016-11-03T02:41:50.065Z,795.85
2016-11-03T02:42:50.056Z,794.73
2016-11-03T02:43:50.070Z,793.42
2016-11-03T02:44:50.062Z,791.71
2016-11-03T02:45:50.064Z,790.28
2016-11-03T02:46:50.089Z,789.57
2016-11-03T02:47:50.077Z,788.31
2016-11-03T02:48:50.072Z,786.92
2016-11-03T02:49:50.096Z,785.71
2016-11-03T02:50:50.078Z,784.5
2016-11-03T02:51:50.092Z,783.25
2016-11-03T02:52:50.088Z,782.48
2016-11-03T02:53:50.070Z,781.51
2016-11-03T02:54:50.125Z,780.89
2016-11-03T02:55:50.083Z,780.09
2016-11-03T02:56:50.074Z,779.85
2016-11-03T02:57:50.085Z,779.69
2016-11-03T02:58:50.088Z,779.04
2016-11-03T02:59:50.094Z,778.58
2016-11-03T03:00:50.131Z,778.64
2016-11-03T03:01:50.077Z,777.62
2016-11-03T03:02:50.091Z,777.19
2016-11-03T03:03:50.084Z,777.51
2016-11-03T03:04:50.075Z,776.31
2016-11-03T03:05:50.073Z,776.21
2016-11-03T03:06:50.086Z,775.89
2016-11-03T03:07:50.065Z,775.75
2016-11-03T03:08:50.081Z,775.37
2016-11-03T03:09:50.112Z,775.13
2016-11-03T03:10:50.086Z,775.25
2016-11-03T03:11:50.075Z,775.73
2016-11-03T03:12:50.087Z,775.75
2016-11-03T03:13:50.094Z,774.94
2016-11-03T03:14:50.088Z,775.14
2016-11-03T03:15:50.091Z,774.83
2016-11-03T03:16:50.083Z,774.5
2016-11-03T03:17:50.086Z,773.69
2016-11-03T03:18:50.090Z,773.59
2016-11-03T03:19:50.087Z,773.17
2016-11-03T03:20:50.097Z,772.17
2016-11-03T03:21:50.102Z,771.9
2016-11-03T03:22:50.084Z,771.75
2016-11-03T03:23:50.091Z,771.53
2016-11-03T03:24:50.096Z,771.3
2016-11-03T03:25:50.086Z,771.45
2016-11-03T03:26:50.101Z,771.4
2016-11-03T03:27:50.096Z,771.39
2016-11-03T03:28:50.144Z,771.25
2016-11-03T03:29:50.129Z,772.26
2016-11-03T03:30:50.105Z,771.96
2016-11-03T03:31:50.103Z,772.26
2016-11-03T03:32:50.096Z,771.42
2016-11-03T03:33:50.103Z,772.08
2016-11-03T03:34:50.094Z,771.26
2016-11-03T03:35:50.107Z,770.45
2016-11-03T03:36:50.113Z,769.99
2016-11-03T03:37:50.119Z,769.17
2016-11-03T03:38:50.109Z,768.39
2016-11-03T03:39:50.100Z,767.74
2016-11-03T03:40:50.096Z,766.11
2016-11-03T03:41:50.117Z,765.05
2016-11-03T03:42:50.096Z,764.29
2016-11-03T03:43:50.113Z,763.12
2016-11-03T03:44:50.089Z,762
2016-11-03T03:45:50.138Z,761.15
2016-11-03T03:46:50.120Z,760.22
2016-11-03T03:47:50.125Z,759.25
2016-11-03T03:48:50.116Z,758.13
2016-11-03T03:49:50.107Z,757.82
2016-11-03T03:50:50.107Z,757.26
2016-11-03T03:51:50.120Z,756.76
2016-11-03T03:52:50.120Z,755.95
2016-11-03T03:53:50.147Z,755.75
2016-11-03T03:54:50.145Z,755.29
2016-11-03T03:55:50.122Z,755.03
2016-11-03T03:56:50.115Z,754.57
2016-11-03T03:57:50.121Z,753.7
2016-11-03T03:58:50.193Z,753.58
2016-11-03T03:59:50.129Z,752.74
2016-11-03T04:00:50.119Z,752.11
2016-11-03T04:01:50.118Z,750.95
2016-11-03T04:02:50.128Z,749.66
2016-11-03T04:03:50.118Z,748.75
2016-11-03T04:04:50.132Z,747.73
2016-11-03T04:05:50.123Z,746.12
2016-11-03T04:06:50.136Z,744.84
2016-11-03T04:07:50.147Z,742.98
2016-11-03T04:08:50.122Z,741.85
2016-11-03T04:09:50.128Z,739.72
2016-11-03T04:10:50.135Z,738.08
2016-11-03T04:11:50.169Z,736.28
2016-11-03T04:12:50.147Z,733.58
2016-11-03T04:13:50.135Z,732.18
2016-11-03T04:14:50.132Z,730.01
2016-11-03T04:15:50.125Z,728.01
2016-11-03T04:16:50.129Z,725.81
2016-11-03T04:17:50.137Z,724.18
2016-11-03T04:18:50.131Z,722.84
2016-11-03T04:19:50.154Z,721.79
2016-11-03T04:20:50.144Z,721.34
2016-11-03T04:21:50.134Z,720.59
2016-11-03T04:22:50.157Z,720.26
2016-11-03T04:23:50.147Z,719.87
2016-11-03T04:24:50.135Z,720.6
2016-11-03T04:25:50.164Z,720.52
2016-11-03T04:26:50.145Z,720.53
2016-11-03T04:27:50.137Z,721.94
2016-11-03T04:28:50.131Z,723.12
2016-11-03T04:29:50.136Z,723.32
2016-11-03T04:30:50.157Z,723.59
2016-11-03T04:31:50.148Z,724.93
2016-11-03T04:32:50.155Z,725.75
2016-11-03T04:33:50.148Z,726.7
2016-11-03T04:34:50.167Z,728.24
2016-11-03T04:35:50.156Z,729.3
2016-11-03T04:36:50.147Z,730.25
2016-11-03T04:37:50.158Z,731.25
2016-11-03T04:38:50.136Z,731.37
2016-11-03T04:39:50.153Z,732.23
2016-11-03T04:40:50.147Z,732.19
2016-11-03T04:41:50.145Z,732
2016-11-03T04:42:50.150Z,731.21
2016-11-03T04:43:50.142Z,730.55
2016-11-03T04:44:50.150Z,729.04
2016-11-03T04:45:50.168Z,728.89
2016-11-03T04:46:50.173Z,727.58
2016-11-03T04:47:50.140Z,726.6
2016-11-03T04:48:50.164Z,724.64
2016-11-03T04:49:50.147Z,722.6
2016-11-03T04:50:50.174Z,721.28
2016-11-03T04:51:50.169Z,719.37
2016-11-03T04:52:50.167Z,718.11
2016-11-03T04:53:50.159Z,716.05
2016-11-03T04:54:50.155Z,714.51
2016-11-03T04:55:50.159Z,712.2
2016-11-03T04:56:50.152Z,709.77
2016-11-03T04:57:50.159Z,708.28
2016-11-03T04:58:50.167Z,706.73
2016-11-03T04:59:50.172Z,704.54
2016-11-03T05:00:50.163Z,703.85
2016-11-03T05:01:50.170Z,702.68
2016-11-03T05:02:50.166Z,701.28
2016-11-03T05:03:50.167Z,700.73
2016-11-03T05:04:50.180Z,700.73
2016-11-03T05:05:50.172Z,700.58
2016-11-03T05:06:50.176Z,700.02
2016-11-03T05:07:50.183Z,700.39
2016-11-03T05:08:50.177Z,700.56
2016-11-03T05:09:50.175Z,701.1
2016-11-03T05:10:50.162Z,702.98
2016-11-03T05:11:50.172Z,702.96
2016-11-03T05:12:50.202Z,703.76
2016-11-03T05:13:50.242Z,704.12
2016-11-03T05:14:50.228Z,704.58
2016-11-03T05:15:50.236Z,705.81
2016-11-03T05:16:50.169Z,705.73
2016-11-03T05:17:50.177Z,706.56
2016-11-03T05:18:50.181Z,707.78
2016-11-03T05:19:50.181Z,708.45
2016-11-03T05:20:50.182Z,709.26
2016-11-03T05:21:50.188Z,709.48
2016-11-03T05:22:50.180Z,710.3
2016-11-03T05:23:50.903Z,710.64
2016-11-03T05:24:50.189Z,710.96
2016-11-03T05:25:50.164Z,711.49
2016-11-03T05:26:50.170Z,712.39
2016-11-03T05:27:50.175Z,712.75
2016-11-03T05:28:50.181Z,713.54
2016-11-03T05:29:50.192Z,714.24
2016-11-03T05:30:50.180Z,714.91
2016-11-03T05:31:50.188Z,715.11
2016-11-03T05:32:50.181Z,715.89
2016-11-03T05:33:50.202Z,716.28
2016-11-03T05:34:50.197Z,716.26
2016-11-03T05:35:50.191Z,716.45
2016-11-03T05:36:50.181Z,717.11
2016-11-03T05:37:50.197Z,717.64
2016-11-03T05:38:50.185Z,718.21
2016-11-03T05:39:50.197Z,718.02
2016-11-03T05:40:50.214Z,718.59
2016-11-03T05:41:50.210Z,718.76
2016-11-03T05:42:50.194Z,719.26
2016-11-03T05:43:50.189Z,719.74
2016-11-03T05:44:50.191Z,719.61
2016-11-03T05:45:50.196Z,720.38
2016-11-03T05:46:50.202Z,721.31
2016-11-03T05:47:50.210Z,721.49
2016-11-03T05:48:50.207Z,722.49
2016-11-03T05:49:50.192Z,722.51
2016-11-03T05:50:50.191Z,722.48
2016-11-03T05:51:50.205Z,722.7
2016-11-03T05:52:50.212Z,722.88
2016-11-03T05:53:50.204Z,723.91
2016-11-03T05:54:50.195Z,724.34
2016-11-03T05:55:50.202Z,725.12
2016-11-03T05:56:50.209Z,725.26
2016-11-03T05:57:50.197Z,725.96
2016-11-03T05:58:50.230Z,726.59
2016-11-03T05:59:50.217Z,727.13
2016-11-03T06:00:50.204Z,728.15
2016-11-03T06:01:50.217Z,728.35
2016-11-03T06:02:50.209Z,729.67
2016-11-03T06:03:50.217Z,729.81
2016-11-03T06:04:50.202Z,730.32
2016-11-03T06:05:50.213Z,730.46
2016-11-03T06:06:50.213Z,731.66
2016-11-03T06:07:50.211Z,731.98
2016-11-03T06:08:50.220Z,732.32
2016-11-03T06:09:50.205Z,732.29
2016-11-03T06:10:50.231Z,733.12
2016-11-03T06:11:50.614Z,733
2016-11-03T06:12:50.228Z,732.5
2016-11-03T06:13:50.221Z,733.54
2016-11-03T06:14:50.227Z,733.85
2016-11-03T06:15:50.234Z,734.19
2016-11-03T06:16:50.241Z,734.39
2016-11-03T06:17:50.217Z,734
2016-11-03T06:18:50.220Z,735.07
2016-11-03T06:19:50.218Z,734.9
2016-11-03T06:20:50.235Z,735.57
2016-11-03T06:21:50.243Z,735.78
2016-11-03T06:22:50.231Z,736.95
2016-11-03T06:23:50.217Z,737.76
2016-11-03T06:24:51.397Z,739.32
2016-11-03T06:25:50.226Z,740.63
2016-11-03T06:26:50.245Z,741.93
2016-11-03T06:27:50.244Z,744.15
2016-11-03T06:28:50.220Z,745.12
2016-11-03T06:29:50.242Z,746.19
2016-11-03T06:30:50.226Z,747.94
2016-11-03T06:31:50.221Z,748.42
2016-11-03T06:32:50.226Z,749.28
2016-11-03T06:33:50.249Z,749.59
2016-11-03T06:34:50.226Z,750.75
2016-11-03T06:35:50.233Z,751.59
2016-11-03T06:36:50.292Z,752.91
2016-11-03T06:37:50.224Z,752.75
2016-11-03T06:38:50.212Z,753.41
2016-11-03T06:39:50.228Z,754.09
2016-11-03T06:40:50.237Z,754.71
2016-11-03T06:41:50.242Z,755.69
2016-11-03T06:42:50.237Z,756.83
2016-11-03T06:43:50.243Z,757
2016-11-03T06:44:50.229Z,758.94
2016-11-03T06:45:50.268Z,760.24
2016-11-03T06:46:50.240Z,761.69
2016-11-03T06:47:50.234Z,762.67
2016-11-03T06:48:50.274Z,764.24
2016-11-03T06:49:50.259Z,765.38
2016-11-03T06:50:50.273Z,765.85
2016-11-03T06:51:50.288Z,768.43
2016-11-03T06:52:50.248Z,769.86
2016-11-03T06:53:50.260Z,770.75
2016-11-03T06:54:50.244Z,771.75
2016-11-03T06:55:50.565Z,773.32
2016-11-03T06:56:50.266Z,774.99
2016-11-03T06:57:51.548Z,776.41
2016-11-03T06:58:50.251Z,777.35
2016-11-03T06:59:50.258Z,778.3
2016-11-03T07:00:50.266Z,778.45
2016-11-03T07:01:50.255Z,778.6
2016-11-03T07:02:50.264Z,779.6
2016-11-03T07:03:50.252Z,780.39
2016-11-03T07:04:50.261Z,780.67
2016-11-03T07:05:50.253Z,781.34
2016-11-03T07:06:50.256Z,782.16
2016-11-03T07:07:50.470Z,782.48
2016-11-03T07:08:50.254Z,782.76
2016-11-03T07:09:50.261Z,783.86
2016-11-03T07:10:50.309Z,785.47
2016-11-03T07:11:50.392Z,785.63
2016-11-03T07:12:50.264Z,787.24
2016-11-03T07:13:50.269Z,787.76
2016-11-03T07:14:50.261Z,788.38
2016-11-03T07:15:50.254Z,789.2
2016-11-03T07:16:50.258Z,790.26
2016-11-03T07:17:50.277Z,790.98
2016-11-03T07:18:50.268Z,792.38
2016-11-03T07:19:50.261Z,793.95
2016-11-03T07:20:50.289Z,795.63
2016-11-03T07:21:50.252Z,798
2016-11-03T07:22:50.258Z,801.27
2016-11-03T07:23:50.302Z,803.09
2016-11-03T07:24:50.258Z,805.55
2016-11-03T07:25:50.264Z,806.95
2016-11-03T07:26:50.271Z,808.79
2016-11-03T07:27:50.261Z,810.48
2016-11-03T07:28:50.269Z,812.26
2016-11-03T07:29:50.259Z,813.19
2016-11-03T07:30:51.980Z,815.18
2016-11-03T07:31:51.035Z,816.7
2016-11-03T07:32:50.365Z,817.44
2016-11-03T07:33:52.722Z,818.06
2016-11-03T07:34:50.352Z,818.95
2016-11-03T07:35:50.277Z,819.54
2016-11-03T07:36:50.288Z,820.91
2016-11-03T07:37:50.281Z,822.58
2016-11-03T07:38:50.282Z,824.35
2016-11-03T07:39:50.279Z,825.98
2016-11-03T07:40:50.270Z,827.17
2016-11-03T07:41:53.682Z,828.99
2016-11-03T07:42:50.268Z,829.71
2016-11-03T07:43:50.276Z,830.84
2016-11-03T07:44:50.302Z,831.58
2016-11-03T07:45:51.231Z,831.32
2016-11-03T07:46:50.280Z,831.1
2016-11-03T07:47:50.279Z,830.62
2016-11-03T07:48:50.281Z,829.73
2016-11-03T07:49:50.269Z,829.62
2016-11-03T07:50:50.275Z,828.97
2016-11-03T07:51:50.272Z,829.09
2016-11-03T07:52:50.273Z,830.16
2016-11-03T07:53:50.283Z,831.2
2016-11-03T07:54:50.273Z,831.55
2016-11-03T07:55:50.279Z,832.1
2016-11-03T07:56:50.273Z,833.72
2016-11-03T07:57:50.265Z,836.24
2016-11-03T07:58:50.301Z,838.38
2016-11-03T07:59:50.276Z,841.16
2016-11-03T08:00:50.276Z,844.17
2016-11-03T08:01:50.276Z,846.18
2016-11-03T08:02:50.303Z,847.98
2016-11-03T08:03:50.301Z,850.02
2016-11-03T08:04:50.302Z,852.29
2016-11-03T08:05:50.281Z,854.41
2016-11-03T08:06:50.287Z,856.81
2016-11-03T08:07:50.282Z,857.94
2016-11-03T08:08:50.287Z,859.66
2016-11-03T08:09:50.281Z,860.65
2016-11-03T08:10:50.278Z,862.45
2016-11-03T08:11:50.270Z,863.56
2016-11-03T08:12:50.327Z,865.64
2016-11-03T08:13:50.280Z,865.93
2016-11-03T08:14:50.283Z,865.96
2016-11-03T08:15:50.283Z,865.93
2016-11-03T08:16:50.284Z,866.54
2016-11-03T08:17:50.282Z,867.11
2016-11-03T08:18:50.298Z,867.37
2016-11-03T08:19:50.282Z,868.52
2016-11-03T08:20:50.286Z,870.6
2016-11-03T08:21:50.291Z,872.01
2016-11-03T08:22:50.296Z,875.87
2016-11-03T08:23:50.306Z,879.79
2016-11-03T08:24:50.291Z,884.72
2016-11-03T08:25:50.905Z,890.14
2016-11-03T08:26:50.305Z,894.53
2016-11-03T08:27:50.303Z,897.95
2016-11-03T08:28:50.297Z,901.12
2016-11-03T08:29:50.287Z,903.75
2016-11-03T08:30:50.296Z,905.46
2016-11-03T08:31:50.383Z,906.83
2016-11-03T08:32:50.316Z,908.71
2016-11-03T08:33:50.303Z,910.92
2016-11-03T08:34:50.299Z,912.42
2016-11-03T08:35:50.300Z,915.24
2016-11-03T08:36:50.294Z,917.66
2016-11-03T08:37:50.315Z,918.09
2016-11-03T08:38:50.305Z,918.07
2016-11-03T08:39:50.296Z,918.2
2016-11-03T08:40:50.306Z,917.9
2016-11-03T08:41:50.308Z,918.07
2016-11-03T08:42:50.312Z,917.76
2016-11-03T08:43:50.324Z,917.3
2016-11-03T08:44:50.313Z,917.04
2016-11-03T08:45:50.322Z,916.55
2016-11-03T08:46:50.299Z,916.18
2016-11-03T08:47:50.309Z,916.56
2016-11-03T08:48:50.313Z,917.57
2016-11-03T08:49:50.290Z,919.08
2016-11-03T08:50:50.338Z,920.01
2016-11-03T08:51:50.303Z,920.54
2016-11-03T08:52:50.299Z,920.2
2016-11-03T08:53:50.312Z,919.19
2016-11-03T08:54:50.325Z,918.95
2016-11-03T08:55:50.395Z,917.88
2016-11-03T08:56:50.308Z,917.3
2016-11-03T08:57:50.312Z,915.28
2016-11-03T08:58:50.308Z,914.36
2016-11-03T08:59:50.302Z,913.98
2016-11-03T09:00:50.344Z,915.4
2016-11-03T09:01:50.328Z,917.31
2016-11-03T09:02:50.330Z,918.99
2016-11-03T09:03:50.338Z,920.61
2016-11-03T09:04:50.333Z,921.25
2016-11-03T09:05:50.355Z,923.51
2016-11-03T09:06:50.331Z,925.27
2016-11-03T09:07:50.349Z,926.55
2016-11-03T09:08:50.346Z,927.76
2016-11-03T09:09:50.337Z,930.37
2016-11-03T09:10:50.350Z,934.12
2016-11-03T09:11:50.367Z,937.54
2016-11-03T09:12:50.343Z,940.82
2016-11-03T09:13:50.342Z,945.21
2016-11-03T09:14:50.338Z,950.18
2016-11-03T09:15:50.356Z,955.56
2016-11-03T09:16:50.343Z,960.8
2016-11-03T09:17:50.356Z,964.69
2016-11-03T09:18:50.337Z,968.6
2016-11-03T09:19:50.352Z,972.62
2016-11-03T09:20:50.339Z,973.82
2016-11-03T09:21:50.342Z,974.87
2016-11-03T09:22:50.335Z,976.82
2016-11-03T09:23:50.342Z,979.44
2016-11-03T09:24:50.371Z,982.42
2016-11-03T09:25:50.355Z,984.64
2016-11-03T09:26:50.336Z,985.47
2016-11-03T09:27:50.353Z,984.64
2016-11-03T09:28:50.342Z,983.91
2016-11-03T09:29:50.340Z,982.02
2016-11-03T09:30:50.355Z,980.91
2016-11-03T09:31:50.342Z,979.12
2016-11-03T09:32:50.349Z,978.01
2016-11-03T09:33:50.339Z,977.79
2016-11-03T09:34:50.363Z,978.24
2016-11-03T09:35:50.389Z,977.61
2016-11-03T09:36:50.357Z,977.71
2016-11-03T09:37:50.341Z,978.29
2016-11-03T09:38:50.336Z,978.49
2016-11-03T09:39:50.396Z,978.76
2016-11-03T09:40:50.339Z,980.2
2016-11-03T09:41:50.347Z,980.96
2016-11-03T09:42:50.352Z,981.16
2016-11-03T09:43:50.359Z,980.51
2016-11-03T09:44:50.354Z,981.52
2016-11-03T09:45:50.357Z,981.87
2016-11-03T09:46:50.336Z,982.43
2016-11-03T09:47:50.343Z,982.28
2016-11-03T09:48:50.355Z,983.52
2016-11-03T09:49:50.355Z,984.59
2016-11-03T09:50:50.373Z,985.7
2016-11-03T09:51:50.358Z,986.83
2016-11-03T09:52:50.363Z,988.8
2016-11-03T09:53:50.415Z,990.86
2016-11-03T09:54:50.384Z,992.53
2016-11-03T09:55:50.359Z,993.37
2016-11-03T09:56:50.351Z,994.58
2016-11-03T09:57:50.356Z,995.15
2016-11-03T09:58:50.361Z,994.72
2016-11-03T09:59:50.420Z,995.03
2016-11-03T10:00:50.368Z,995.52
2016-11-03T10:01:50.359Z,996.67
2016-11-03T10:02:50.352Z,996.43
2016-11-03T10:03:50.366Z,997.11
2016-11-03T10:04:50.365Z,998.59
2016-11-03T10:05:50.382Z,1000.15
2016-11-03T10:06:50.362Z,1001.82
2016-11-03T10:07:50.372Z,1003.63
2016-11-03T10:08:50.371Z,1005.21
2016-11-03T10:09:50.369Z,1006.51
2016-11-03T10:10:50.389Z,1008.37
2016-11-03T10:11:50.433Z,1009.94
2016-11-03T10:12:50.364Z,1012.02
2016-11-03T10:13:50.372Z,1013.87
2016-11-03T10:14:50.378Z,1015.56
2016-11-03T10:15:50.397Z,1017.19
2016-11-03T10:16:50.391Z,1017.89
2016-11-03T10:17:50.382Z,1018.27
2016-11-03T10:18:50.373Z,1018.77
2016-11-03T10:19:50.379Z,1019.32
2016-11-03T10:20:50.386Z,1020.39
2016-11-03T10:21:50.383Z,1020.59
2016-11-03T10:22:50.434Z,1020.87
2016-11-03T10:23:50.385Z,1020.87
2016-11-03T10:24:50.379Z,1021.67
2016-11-03T10:25:50.454Z,1023.33
2016-11-03T10:26:50.398Z,1024.65
2016-11-03T10:27:50.392Z,1025.8
2016-11-03T10:28:50.371Z,1026.54
2016-11-03T10:29:50.415Z,1027.09
2016-11-03T10:30:50.422Z,1027.45
2016-11-03T10:31:50.435Z,1027.48
2016-11-03T10:32:50.398Z,1027.32
2016-11-03T10:33:50.433Z,1026.84
2016-11-03T10:34:50.486Z,1027.86
2016-11-03T10:35:50.437Z,1027.67
2016-11-03T10:36:50.411Z,1028.21
2016-11-03T10:37:50.418Z,1028.1
2016-11-03T10:38:50.411Z,1027.96
2016-11-03T10:39:50.407Z,1027.66
2016-11-03T10:40:50.424Z,1027.98
2016-11-03T10:41:50.429Z,1027.83
2016-11-03T10:42:50.413Z,1028.13
2016-11-03T10:43:50.405Z,1028.18
2016-11-03T10:44:50.393Z,1027.38
2016-11-03T10:45:50.419Z,1026.57
2016-11-03T10:46:50.427Z,1025.31
2016-11-03T10:47:50.413Z,1025.52
2016-11-03T10:48:50.417Z,1025.58
2016-11-03T10:49:50.422Z,1024.77
2016-11-03T10:50:50.422Z,1022.44
2016-11-03T10:51:50.508Z,1020.77
2016-11-03T10:52:50.445Z,1019.81
2016-11-03T10:53:50.415Z,1018.35
2016-11-03T10:54:50.424Z,1017.44
2016-11-03T10:55:50.447Z,1016.27
2016-11-03T10:56:50.438Z,1015.81
2016-11-03T10:57:50.427Z,1016.34
2016-11-03T10:58:50.417Z,1017.18
2016-11-03T10:59:50.409Z,1017.98
2016-11-03T11:00:50.436Z,1017.93
2016-11-03T11:01:50.439Z,1018.62
2016-11-03T11:02:50.410Z,1018.9
2016-11-03T11:03:50.423Z,1018.81
2016-11-03T11:04:50.407Z,1018.44
2016-11-03T11:05:50.430Z,1018.16
2016-11-03T11:06:50.420Z,1018.19
2016-11-03T11:07:50.459Z,1016.48
2016-11-03T11:08:50.421Z,1014.81
2016-11-03T11:09:50.625Z,1013.73
2016-11-03T11:10:50.436Z,1013
2016-11-03T11:11:50.424Z,1014.2
2016-11-03T11:12:50.434Z,1015.1
2016-11-03T11:13:50.420Z,1015.96
2016-11-03T11:14:50.445Z,1016.92
2016-11-03T11:15:50.439Z,1017.91
2016-11-03T11:16:50.411Z,1017.37
2016-11-03T11:17:50.434Z,1017.04
2016-11-03T11:18:50.452Z,1016.34
2016-11-03T11:19:50.420Z,1016.19
2016-11-03T11:20:50.484Z,1017.42
2016-11-03T11:21:50.439Z,1018.94
2016-11-03T11:22:50.427Z,1020.75
2016-11-03T11:23:50.437Z,1021.48
2016-11-03T11:24:50.448Z,1021.92
2016-11-03T11:25:50.448Z,1022.66
2016-11-03T11:26:50.443Z,1023.84
2016-11-03T11:27:50.429Z,1025.67
2016-11-03T11:28:50.436Z,1026.99
2016-11-03T11:29:50.457Z,1028.82
2016-11-03T11:30:50.464Z,1030.54
2016-11-03T11:31:50.445Z,1031.33
2016-11-03T11:32:50.457Z,1032.51
2016-11-03T11:33:50.452Z,1033.66
2016-11-03T11:34:50.445Z,1035.08
2016-11-03T11:35:50.456Z,1035.46
2016-11-03T11:36:50.478Z,1035.73
2016-11-03T11:37:50.465Z,1037.03
2016-11-03T11:38:50.481Z,1037.42
2016-11-03T11:39:50.480Z,1038.37
2016-11-03T11:40:50.502Z,1039.96
2016-11-03T11:41:50.595Z,1042.1
2016-11-03T11:42:50.461Z,1044.31
2016-11-03T11:43:50.458Z,1045.72
2016-11-03T11:44:50.479Z,1046.9
2016-11-03T11:45:50.521Z,1047.88
2016-11-03T11:46:50.442Z,1046.82
2016-11-03T11:47:50.455Z,1046.12
2016-11-03T11:48:50.467Z,1046.54
2016-11-03T11:49:50.561Z,1046.85
2016-11-03T11:50:50.470Z,1047.02
2016-11-03T11:51:50.472Z,1047.14
2016-11-03T11:52:50.466Z,1047.88
2016-11-03T11:53:50.450Z,1049.39
2016-11-03T11:54:50.457Z,1051.3
2016-11-03T11:55:50.489Z,1052.12
2016-11-03T11:56:51.100Z,1052.05
2016-11-03T11:57:50.461Z,1050.29
2016-11-03T11:58:50.474Z,1049
2016-11-03T11:59:50.457Z,1047.22
2016-11-03T12:00:50.482Z,1044.48
2016-11-03T12:01:50.457Z,1041.21
2016-11-03T12:02:50.501Z,1038.3
2016-11-03T12:03:50.645Z,1035.29
2016-11-03T12:04:50.460Z,1033.63
2016-11-03T12:05:50.497Z,1032.77
2016-11-03T12:06:50.503Z,1031.05
2016-11-03T12:07:50.466Z,1031.17
2016-11-03T12:08:50.477Z,1032.68
2016-11-03T12:09:50.525Z,1035.58
2016-11-03T12:10:50.492Z,1037.72
2016-11-03T12:11:50.467Z,1039.44
2016-11-03T12:12:50.469Z,1040.62
2016-11-03T12:13:50.489Z,1042.37
2016-11-03T12:14:50.470Z,1043.44
2016-11-03T12:15:50.492Z,1043.78
2016-11-03T12:16:50.483Z,1042.74
2016-11-03T12:17:50.505Z,1040.35
2016-11-03T12:18:50.558Z,1037.52
2016-11-03T12:19:50.496Z,1033.88
2016-11-03T12:20:50.502Z,1030.73
2016-11-03T12:21:50.496Z,1027.13
2016-11-03T12:22:50.483Z,1025.1
2016-11-03T12:23:50.487Z,1022.8
2016-11-03T12:24:50.503Z,1021.55
2016-11-03T12:25:50.519Z,1021.52
2016-11-03T12:26:50.500Z,1022.55
2016-11-03T12:27:50.501Z,1022.78